sensor_id;sensor_type;location;lat;lon;timestamp;temperature;humidity
10175;DHT22;18221;38.704;0.152;2024-03-22T00:02:26;12.90;99.90
10175;DHT22;18221;38.704;0.152;2024-03-22T00:04:54;12.90;99.90
10175;DHT22;18221;38.704;0.152;2024-03-22T00:07:21;12.90;99.90
10175;DHT22;18221;38.704;0.152;2024-03-22T00:09:49;12.90;99.90
10175;DHT22;18221;38.704;0.152;2024-03-22T00:12:16;13.00;99.90
10175;DHT22;18221;38.704;0.152;2024-03-22T00:14:44;13.00;99.90
10175;DHT22;18221;38.704;0.152;2024-03-22T00:17:11;13.00;99.90
10175;DHT22;18221;38.704;0.152;2024-03-22T00:19:40;13.00;99.90
10175;DHT22;18221;38.704;0.152;2024-03-22T00:22:07;13.00;99.90
10175;DHT22;18221;38.704;0.152;2024-03-22T00:24:35;13.00;99.90
10175;DHT22;18221;38.704;0.152;2024-03-22T00:27:02;13.00;99.90
10175;DHT22;18221;38.704;0.152;2024-03-22T00:29:30;13.00;99.90
10175;DHT22;18221;38.704;0.152;2024-03-22T00:32:00;13.00;99.90
10175;DHT22;18221;38.704;0.152;2024-03-22T00:34:28;13.00;99.90
10175;DHT22;18221;38.704;0.152;2024-03-22T00:36:56;13.00;99.90
10175;DHT22;18221;38.704;0.152;2024-03-22T00:39:24;13.00;99.90
10175;DHT22;18221;38.704;0.152;2024-03-22T00:41:51;13.00;99.90
10175;DHT22;18221;38.704;0.152;2024-03-22T00:44:19;13.00;99.90
10175;DHT22;18221;38.704;0.152;2024-03-22T00:46:46;13.00;99.90
10175;DHT22;18221;38.704;0.152;2024-03-22T00:49:14;13.00;99.90
10175;DHT22;18221;38.704;0.152;2024-03-22T01:02:05;10.90;99.90
10175;DHT22;18221;38.704;0.152;2024-03-22T01:04:34;13.10;99.90
10175;DHT22;18221;38.704;0.152;2024-03-22T01:07:00;13.10;99.90
10175;DHT22;18221;38.704;0.152;2024-03-22T01:09:28;13.10;99.90
10175;DHT22;18221;38.704;0.152;2024-03-22T01:11:55;13.10;99.90
10175;DHT22;18221;38.704;0.152;2024-03-22T01:14:25;13.10;99.90
10175;DHT22;18221;38.704;0.152;2024-03-22T01:16:52;13.10;99.90
10175;DHT22;18221;38.704;0.152;2024-03-22T01:19:22;13.10;99.90
10175;DHT22;18221;38.704;0.152;2024-03-22T01:21:49;13.20;99.90
10175;DHT22;18221;38.704;0.152;2024-03-22T01:24:17;13.10;99.90
10175;DHT22;18221;38.704;0.152;2024-03-22T01:26:44;13.20;99.90
10175;DHT22;18221;38.704;0.152;2024-03-22T01:29:13;13.20;99.90
10175;DHT22;18221;38.704;0.152;2024-03-22T01:31:40;13.20;99.90
10175;DHT22;18221;38.704;0.152;2024-03-22T01:34:08;13.20;99.90
10175;DHT22;18221;38.704;0.152;2024-03-22T01:36:36;13.20;99.90
10175;DHT22;18221;38.704;0.152;2024-03-22T01:39:04;13.60;99.90
10175;DHT22;18221;38.704;0.152;2024-03-22T01:41:31;13.10;99.90
10175;DHT22;18221;38.704;0.152;2024-03-22T01:43:59;13.20;99.90
10175;DHT22;18221;38.704;0.152;2024-03-22T01:46:26;13.20;99.90
10175;DHT22;18221;38.704;0.152;2024-03-22T01:48:54;13.20;99.90
10175;DHT22;18221;38.704;0.152;2024-03-22T01:51:21;13.20;99.90
10175;DHT22;18221;38.704;0.152;2024-03-22T01:53:51;13.20;99.90
10175;DHT22;18221;38.704;0.152;2024-03-22T01:56:19;13.30;99.90
10175;DHT22;18221;38.704;0.152;2024-03-22T01:58:49;13.30;99.90
10175;DHT22;18221;38.704;0.152;2024-03-22T02:01:16;13.30;99.90
10175;DHT22;18221;38.704;0.152;2024-03-22T02:03:44;13.40;99.90
10175;DHT22;18221;38.704;0.152;2024-03-22T02:06:10;13.40;99.90
10175;DHT22;18221;38.704;0.152;2024-03-22T02:08:39;13.50;99.90
10175;DHT22;18221;38.704;0.152;2024-03-22T02:11:09;13.60;99.90
10175;DHT22;18221;38.704;0.152;2024-03-22T02:13:37;13.60;99.90
10175;DHT22;18221;38.704;0.152;2024-03-22T02:16:04;13.60;99.90
10175;DHT22;18221;38.704;0.152;2024-03-22T02:18:32;13.50;99.90
10175;DHT22;18221;38.704;0.152;2024-03-22T02:20:59;13.50;99.90
10175;DHT22;18221;38.704;0.152;2024-03-22T02:23:32;13.50;99.90
10175;DHT22;18221;38.704;0.152;2024-03-22T02:26:00;13.50;99.90
10175;DHT22;18221;38.704;0.152;2024-03-22T02:28:28;13.60;99.90
10175;DHT22;18221;38.704;0.152;2024-03-22T02:30:56;13.60;99.90
10175;DHT22;18221;38.704;0.152;2024-03-22T02:33:24;13.70;99.90
10175;DHT22;18221;38.704;0.152;2024-03-22T02:35:51;13.70;99.90
10175;DHT22;18221;38.704;0.152;2024-03-22T02:38:19;13.70;99.90
10175;DHT22;18221;38.704;0.152;2024-03-22T02:40:48;13.70;99.90
10175;DHT22;18221;38.704;0.152;2024-03-22T02:43:17;13.70;99.90
10175;DHT22;18221;38.704;0.152;2024-03-22T02:45:45;13.70;99.90
10175;DHT22;18221;38.704;0.152;2024-03-22T02:48:14;13.70;99.90
10175;DHT22;18221;38.704;0.152;2024-03-22T02:50:41;13.70;99.90
10175;DHT22;18221;38.704;0.152;2024-03-22T02:53:09;13.70;99.90
10175;DHT22;18221;38.704;0.152;2024-03-22T02:55:37;13.70;99.90
10175;DHT22;18221;38.704;0.152;2024-03-22T02:58:07;13.70;99.90
10175;DHT22;18221;38.704;0.152;2024-03-22T03:00:36;13.70;99.90
10175;DHT22;18221;38.704;0.152;2024-03-22T03:03:04;13.80;99.90
10175;DHT22;18221;38.704;0.152;2024-03-22T03:05:31;13.80;99.90
10175;DHT22;18221;38.704;0.152;2024-03-22T03:08:00;13.90;99.90
10175;DHT22;18221;38.704;0.152;2024-03-22T03:10:27;13.90;99.90
10175;DHT22;18221;38.704;0.152;2024-03-22T03:12:55;13.90;99.90
10175;DHT22;18221;38.704;0.152;2024-03-22T03:15:24;14.00;99.90
10175;DHT22;18221;38.704;0.152;2024-03-22T03:17:52;14.00;99.90
10175;DHT22;18221;38.704;0.152;2024-03-22T03:20:19;14.00;99.90
10175;DHT22;18221;38.704;0.152;2024-03-22T03:22:47;14.10;99.90
10175;DHT22;18221;38.704;0.152;2024-03-22T03:25:14;14.10;99.90
10175;DHT22;18221;38.704;0.152;2024-03-22T03:27:42;14.10;99.90
10175;DHT22;18221;38.704;0.152;2024-03-22T03:30:09;14.10;99.90
10175;DHT22;18221;38.704;0.152;2024-03-22T03:32:39;14.10;99.90
10175;DHT22;18221;38.704;0.152;2024-03-22T03:35:06;14.10;99.90
10175;DHT22;18221;38.704;0.152;2024-03-22T03:37:35;14.20;99.90
10175;DHT22;18221;38.704;0.152;2024-03-22T03:40:02;14.10;99.90
10175;DHT22;18221;38.704;0.152;2024-03-22T03:42:30;14.10;99.90
10175;DHT22;18221;38.704;0.152;2024-03-22T03:44:57;14.10;99.90
10175;DHT22;18221;38.704;0.152;2024-03-22T03:47:25;14.10;99.90
10175;DHT22;18221;38.704;0.152;2024-03-22T03:49:53;14.20;99.90
10175;DHT22;18221;38.704;0.152;2024-03-22T03:52:21;14.20;99.90
10175;DHT22;18221;38.704;0.152;2024-03-22T03:54:48;14.20;99.90
10175;DHT22;18221;38.704;0.152;2024-03-22T03:57:16;14.30;99.90
10175;DHT22;18221;38.704;0.152;2024-03-22T03:59:43;14.30;99.90
10175;DHT22;18221;38.704;0.152;2024-03-22T04:02:11;14.30;99.90
10175;DHT22;18221;38.704;0.152;2024-03-22T04:04:37;14.40;99.90
10175;DHT22;18221;38.704;0.152;2024-03-22T04:07:07;14.40;99.90
10175;DHT22;18221;38.704;0.152;2024-03-22T04:09:34;14.40;99.90
10175;DHT22;18221;38.704;0.152;2024-03-22T04:12:03;14.40;99.90
10175;DHT22;18221;38.704;0.152;2024-03-22T04:14:30;14.50;99.90
10175;DHT22;18221;38.704;0.152;2024-03-22T04:16:58;13.70;99.90
10175;DHT22;18221;38.704;0.152;2024-03-22T04:19:25;14.60;99.90
10175;DHT22;18221;38.704;0.152;2024-03-22T04:21:53;14.60;99.90
10175;DHT22;18221;38.704;0.152;2024-03-22T04:24:22;14.60;99.90
10175;DHT22;18221;38.704;0.152;2024-03-22T04:26:50;14.60;99.90
10175;DHT22;18221;38.704;0.152;2024-03-22T04:29:17;14.70;99.90
10175;DHT22;18221;38.704;0.152;2024-03-22T04:31:45;14.70;99.90
10175;DHT22;18221;38.704;0.152;2024-03-22T04:34:12;14.70;99.90
10175;DHT22;18221;38.704;0.152;2024-03-22T04:36:40;14.70;99.90
10175;DHT22;18221;38.704;0.152;2024-03-22T04:39:07;14.60;99.90
10175;DHT22;18221;38.704;0.152;2024-03-22T04:41:37;14.60;99.90
10175;DHT22;18221;38.704;0.152;2024-03-22T04:44:05;14.60;99.90
10175;DHT22;18221;38.704;0.152;2024-03-22T04:46:33;14.60;99.90
10175;DHT22;18221;38.704;0.152;2024-03-22T04:49:00;14.60;99.90
10175;DHT22;18221;38.704;0.152;2024-03-22T04:51:28;14.60;99.90
10175;DHT22;18221;38.704;0.152;2024-03-22T04:53:55;14.60;99.90
10175;DHT22;18221;38.704;0.152;2024-03-22T04:56:23;14.70;99.90
10175;DHT22;18221;38.704;0.152;2024-03-22T04:58:51;14.60;99.90
10175;DHT22;18221;38.704;0.152;2024-03-22T05:01:21;14.70;99.90
10175;DHT22;18221;38.704;0.152;2024-03-22T05:03:49;14.60;99.90
10175;DHT22;18221;38.704;0.152;2024-03-22T05:06:18;14.70;99.90
10175;DHT22;18221;38.704;0.152;2024-03-22T05:08:46;14.70;99.90
10175;DHT22;18221;38.704;0.152;2024-03-22T05:11:14;14.70;99.90
10175;DHT22;18221;38.704;0.152;2024-03-22T05:13:41;14.70;99.90
10175;DHT22;18221;38.704;0.152;2024-03-22T05:16:11;14.70;99.90
10175;DHT22;18221;38.704;0.152;2024-03-22T05:18:38;14.70;99.90
10175;DHT22;18221;38.704;0.152;2024-03-22T05:21:06;14.70;99.90
10175;DHT22;18221;38.704;0.152;2024-03-22T05:23:33;14.70;99.90
10175;DHT22;18221;38.704;0.152;2024-03-22T05:26:01;14.70;99.90
10175;DHT22;18221;38.704;0.152;2024-03-22T05:28:29;14.70;99.90
10175;DHT22;18221;38.704;0.152;2024-03-22T05:30:57;14.70;99.90
10175;DHT22;18221;38.704;0.152;2024-03-22T05:33:26;14.70;99.90
10175;DHT22;18221;38.704;0.152;2024-03-22T05:35:54;14.70;99.90
10175;DHT22;18221;38.704;0.152;2024-03-22T05:38:21;14.80;99.90
10175;DHT22;18221;38.704;0.152;2024-03-22T05:40:49;14.80;99.90
10175;DHT22;18221;38.704;0.152;2024-03-22T05:43:16;14.80;99.90
10175;DHT22;18221;38.704;0.152;2024-03-22T05:45:44;14.80;99.90
10175;DHT22;18221;38.704;0.152;2024-03-22T05:48:11;14.80;99.90
10175;DHT22;18221;38.704;0.152;2024-03-22T05:50:41;14.80;99.90
10175;DHT22;18221;38.704;0.152;2024-03-22T05:53:07;14.80;99.90
10175;DHT22;18221;38.704;0.152;2024-03-22T05:55:35;14.80;99.90
10175;DHT22;18221;38.704;0.152;2024-03-22T05:58:02;14.80;99.90
10175;DHT22;18221;38.704;0.152;2024-03-22T06:00:30;14.70;99.90
10175;DHT22;18221;38.704;0.152;2024-03-22T06:02:57;14.70;99.90
10175;DHT22;18221;38.704;0.152;2024-03-22T06:05:25;14.80;99.90
10175;DHT22;18221;38.704;0.152;2024-03-22T06:07:54;14.80;99.90
10175;DHT22;18221;38.704;0.152;2024-03-22T06:10:22;15.70;99.90
10175;DHT22;18221;38.704;0.152;2024-03-22T06:12:49;14.80;99.90
10175;DHT22;18221;38.704;0.152;2024-03-22T06:15:16;14.80;99.90
10175;DHT22;18221;38.704;0.152;2024-03-22T06:17:47;14.80;99.90
10175;DHT22;18221;38.704;0.152;2024-03-22T06:20:16;14.80;99.90
10175;DHT22;18221;38.704;0.152;2024-03-22T06:22:43;14.80;99.90
10175;DHT22;18221;38.704;0.152;2024-03-22T06:25:12;14.90;99.90
10175;DHT22;18221;38.704;0.152;2024-03-22T06:27:39;14.90;99.90
10175;DHT22;18221;38.704;0.152;2024-03-22T06:30:08;14.90;99.90
10175;DHT22;18221;38.704;0.152;2024-03-22T06:32:35;14.90;99.90
10175;DHT22;18221;38.704;0.152;2024-03-22T06:35:03;14.90;99.90
10175;DHT22;18221;38.704;0.152;2024-03-22T06:37:31;15.00;99.90
10175;DHT22;18221;38.704;0.152;2024-03-22T06:39:59;14.90;99.90
10175;DHT22;18221;38.704;0.152;2024-03-22T06:42:27;14.90;99.90
10175;DHT22;18221;38.704;0.152;2024-03-22T06:44:55;14.90;99.90
10175;DHT22;18221;38.704;0.152;2024-03-22T06:47:22;15.00;99.90
10175;DHT22;18221;38.704;0.152;2024-03-22T06:49:50;14.90;99.90
10175;DHT22;18221;38.704;0.152;2024-03-22T06:52:17;15.00;99.90
10175;DHT22;18221;38.704;0.152;2024-03-22T06:54:45;15.00;99.90
10175;DHT22;18221;38.704;0.152;2024-03-22T06:57:12;15.00;99.90
10175;DHT22;18221;38.704;0.152;2024-03-22T06:59:42;15.00;99.90
10175;DHT22;18221;38.704;0.152;2024-03-22T07:02:09;15.00;99.90
10175;DHT22;18221;38.704;0.152;2024-03-22T07:04:38;15.00;99.90
10175;DHT22;18221;38.704;0.152;2024-03-22T07:07:05;15.10;99.90
10175;DHT22;18221;38.704;0.152;2024-03-22T07:09:33;15.10;99.90
10175;DHT22;18221;38.704;0.152;2024-03-22T07:12:00;15.10;99.90
10175;DHT22;18221;38.704;0.152;2024-03-22T07:14:28;15.20;99.90
10175;DHT22;18221;38.704;0.152;2024-03-22T07:16:57;15.20;99.90
10175;DHT22;18221;38.704;0.152;2024-03-22T07:19:25;15.30;99.90
10175;DHT22;18221;38.704;0.152;2024-03-22T07:21:52;15.30;99.90
10175;DHT22;18221;38.704;0.152;2024-03-22T07:24:20;15.30;99.90
10175;DHT22;18221;38.704;0.152;2024-03-22T07:26:50;15.40;99.90
10175;DHT22;18221;38.704;0.152;2024-03-22T07:29:17;15.40;99.90
10175;DHT22;18221;38.704;0.152;2024-03-22T07:31:46;15.50;99.90
10175;DHT22;18221;38.704;0.152;2024-03-22T07:34:16;15.50;99.90
10175;DHT22;18221;38.704;0.152;2024-03-22T07:36:44;15.60;99.90
10175;DHT22;18221;38.704;0.152;2024-03-22T07:39:12;15.60;99.90
10175;DHT22;18221;38.704;0.152;2024-03-22T07:41:39;15.60;99.90
10175;DHT22;18221;38.704;0.152;2024-03-22T07:44:07;15.60;99.90
10175;DHT22;18221;38.704;0.152;2024-03-22T07:46:34;15.60;99.90
10175;DHT22;18221;38.704;0.152;2024-03-22T07:49:02;15.60;99.90
10175;DHT22;18221;38.704;0.152;2024-03-22T07:51:31;15.60;99.90
10175;DHT22;18221;38.704;0.152;2024-03-22T07:53:59;15.60;99.90
10175;DHT22;18221;38.704;0.152;2024-03-22T07:56:26;15.70;99.90
10175;DHT22;18221;38.704;0.152;2024-03-22T07:58:54;15.80;99.90
10175;DHT22;18221;38.704;0.152;2024-03-22T08:01:21;15.80;99.90
10175;DHT22;18221;38.704;0.152;2024-03-22T08:03:49;15.80;99.90
10175;DHT22;18221;38.704;0.152;2024-03-22T08:06:17;15.80;99.90
10175;DHT22;18221;38.704;0.152;2024-03-22T08:08:47;15.80;99.90
10175;DHT22;18221;38.704;0.152;2024-03-22T08:11:14;15.90;99.90
10175;DHT22;18221;38.704;0.152;2024-03-22T08:13:42;16.00;99.90
10175;DHT22;18221;38.704;0.152;2024-03-22T08:16:09;16.00;99.90
10175;DHT22;18221;38.704;0.152;2024-03-22T08:18:37;16.00;99.90
10175;DHT22;18221;38.704;0.152;2024-03-22T08:21:04;16.10;99.90
10175;DHT22;18221;38.704;0.152;2024-03-22T08:23:32;16.10;99.90
10175;DHT22;18221;38.704;0.152;2024-03-22T08:26:01;16.20;99.90
10175;DHT22;18221;38.704;0.152;2024-03-22T08:28:29;16.20;99.90
10175;DHT22;18221;38.704;0.152;2024-03-22T08:30:56;16.30;99.90
10175;DHT22;18221;38.704;0.152;2024-03-22T08:33:24;16.30;99.90
10175;DHT22;18221;38.704;0.152;2024-03-22T08:35:51;16.40;99.90
10175;DHT22;18221;38.704;0.152;2024-03-22T08:38:19;16.50;99.90
10175;DHT22;18221;38.704;0.152;2024-03-22T08:40:46;16.60;99.90
10175;DHT22;18221;38.704;0.152;2024-03-22T08:43:15;16.60;99.90
10175;DHT22;18221;38.704;0.152;2024-03-22T08:45:47;16.70;99.90
10175;DHT22;18221;38.704;0.152;2024-03-22T08:48:14;16.70;99.90
10175;DHT22;18221;38.704;0.152;2024-03-22T08:50:42;16.80;99.90
10175;DHT22;18221;38.704;0.152;2024-03-22T08:53:11;16.90;99.90
10175;DHT22;18221;38.704;0.152;2024-03-22T08:55:38;17.00;99.90
10175;DHT22;18221;38.704;0.152;2024-03-22T08:58:06;17.00;99.90
10175;DHT22;18221;38.704;0.152;2024-03-22T09:00:34;17.10;99.90
10175;DHT22;18221;38.704;0.152;2024-03-22T09:03:08;17.10;99.90
10175;DHT22;18221;38.704;0.152;2024-03-22T09:05:35;17.20;99.90
10175;DHT22;18221;38.704;0.152;2024-03-22T09:08:03;17.20;99.90
10175;DHT22;18221;38.704;0.152;2024-03-22T09:10:31;17.30;99.90
10175;DHT22;18221;38.704;0.152;2024-03-22T09:12:59;17.40;99.90
10175;DHT22;18221;38.704;0.152;2024-03-22T09:15:26;17.50;99.90
10175;DHT22;18221;38.704;0.152;2024-03-22T09:17:55;17.50;99.90
10175;DHT22;18221;38.704;0.152;2024-03-22T09:20:22;17.60;99.90
10175;DHT22;18221;38.704;0.152;2024-03-22T09:22:50;17.60;99.90
10175;DHT22;18221;38.704;0.152;2024-03-22T09:25:17;17.70;99.90
10175;DHT22;18221;38.704;0.152;2024-03-22T09:27:45;17.70;99.90
10175;DHT22;18221;38.704;0.152;2024-03-22T09:30:13;17.80;99.90
10175;DHT22;18221;38.704;0.152;2024-03-22T09:32:41;17.90;99.90
10175;DHT22;18221;38.704;0.152;2024-03-22T09:35:10;17.90;99.90
10175;DHT22;18221;38.704;0.152;2024-03-22T09:37:40;18.00;99.90
10175;DHT22;18221;38.704;0.152;2024-03-22T09:40:08;18.00;99.90
10175;DHT22;18221;38.704;0.152;2024-03-22T09:42:38;18.20;99.90
10175;DHT22;18221;38.704;0.152;2024-03-22T09:45:08;18.30;99.90
10175;DHT22;18221;38.704;0.152;2024-03-22T09:47:37;18.40;99.90
10175;DHT22;18221;38.704;0.152;2024-03-22T09:50:07;18.40;99.90
10175;DHT22;18221;38.704;0.152;2024-03-22T09:52:38;18.40;99.90
10175;DHT22;18221;38.704;0.152;2024-03-22T09:55:06;18.40;99.90
10175;DHT22;18221;38.704;0.152;2024-03-22T09:57:37;18.50;99.90
10175;DHT22;18221;38.704;0.152;2024-03-22T10:00:09;18.50;99.90
10175;DHT22;18221;38.704;0.152;2024-03-22T10:02:40;18.50;99.90
10175;DHT22;18221;38.704;0.152;2024-03-22T10:05:08;18.60;99.90
10175;DHT22;18221;38.704;0.152;2024-03-22T10:07:37;18.60;99.90
10175;DHT22;18221;38.704;0.152;2024-03-22T10:10:05;18.70;99.90
10175;DHT22;18221;38.704;0.152;2024-03-22T10:12:34;18.70;99.90
10175;DHT22;18221;38.704;0.152;2024-03-22T10:15:01;18.70;99.90
10175;DHT22;18221;38.704;0.152;2024-03-22T10:17:30;18.80;99.90
10175;DHT22;18221;38.704;0.152;2024-03-22T10:19:58;18.90;99.90
10175;DHT22;18221;38.704;0.152;2024-03-22T10:22:26;18.90;99.90
10175;DHT22;18221;38.704;0.152;2024-03-22T10:24:55;18.90;99.90
10175;DHT22;18221;38.704;0.152;2024-03-22T10:27:27;19.00;99.90
10175;DHT22;18221;38.704;0.152;2024-03-22T10:29:56;18.70;99.90
10175;DHT22;18221;38.704;0.152;2024-03-22T10:32:24;19.10;99.90
10175;DHT22;18221;38.704;0.152;2024-03-22T10:34:53;19.20;99.90
10175;DHT22;18221;38.704;0.152;2024-03-22T10:37:20;19.30;99.90
10175;DHT22;18221;38.704;0.152;2024-03-22T10:39:51;19.40;99.90
10175;DHT22;18221;38.704;0.152;2024-03-22T10:42:21;19.50;99.90
10175;DHT22;18221;38.704;0.152;2024-03-22T10:44:49;19.40;99.90
10175;DHT22;18221;38.704;0.152;2024-03-22T10:47:17;19.60;99.90
10175;DHT22;18221;38.704;0.152;2024-03-22T10:49:48;19.60;99.90
10175;DHT22;18221;38.704;0.152;2024-03-22T10:52:23;19.80;99.90
10175;DHT22;18221;38.704;0.152;2024-03-22T10:54:51;19.80;99.90
10175;DHT22;18221;38.704;0.152;2024-03-22T10:57:18;19.90;99.90
10175;DHT22;18221;38.704;0.152;2024-03-22T10:59:48;20.00;99.90
10175;DHT22;18221;38.704;0.152;2024-03-22T11:02:17;20.00;99.90
10175;DHT22;18221;38.704;0.152;2024-03-22T11:04:54;20.00;99.90
10175;DHT22;18221;38.704;0.152;2024-03-22T11:07:29;20.10;99.90
10175;DHT22;18221;38.704;0.152;2024-03-22T11:09:56;20.20;99.90
10175;DHT22;18221;38.704;0.152;2024-03-22T11:12:25;20.30;99.90
10175;DHT22;18221;38.704;0.152;2024-03-22T11:14:55;20.40;99.90
10175;DHT22;18221;38.704;0.152;2024-03-22T11:17:23;20.50;99.90
10175;DHT22;18221;38.704;0.152;2024-03-22T11:19:51;20.60;99.90
10175;DHT22;18221;38.704;0.152;2024-03-22T11:22:18;20.60;99.90
10175;DHT22;18221;38.704;0.152;2024-03-22T11:24:46;20.60;99.90
10175;DHT22;18221;38.704;0.152;2024-03-22T11:27:13;20.70;99.90
10175;DHT22;18221;38.704;0.152;2024-03-22T11:29:41;20.70;99.90
10175;DHT22;18221;38.704;0.152;2024-03-22T11:32:12;20.80;99.90
10175;DHT22;18221;38.704;0.152;2024-03-22T11:34:40;20.80;99.90
10175;DHT22;18221;38.704;0.152;2024-03-22T11:37:07;20.90;99.90
10175;DHT22;18221;38.704;0.152;2024-03-22T11:39:36;20.90;99.90
10175;DHT22;18221;38.704;0.152;2024-03-22T11:42:05;21.00;99.90
10175;DHT22;18221;38.704;0.152;2024-03-22T11:44:37;20.90;99.90
10175;DHT22;18221;38.704;0.152;2024-03-22T11:47:05;21.00;99.90
10175;DHT22;18221;38.704;0.152;2024-03-22T11:49:35;21.10;99.90
10175;DHT22;18221;38.704;0.152;2024-03-22T11:52:03;21.10;99.90
10175;DHT22;18221;38.704;0.152;2024-03-22T11:54:31;21.20;99.90
10175;DHT22;18221;38.704;0.152;2024-03-22T11:56:59;21.30;99.90
10175;DHT22;18221;38.704;0.152;2024-03-22T11:59:30;21.30;99.90
10175;DHT22;18221;38.704;0.152;2024-03-22T12:01:57;21.30;99.90
10175;DHT22;18221;38.704;0.152;2024-03-22T12:04:25;21.30;99.90
10175;DHT22;18221;38.704;0.152;2024-03-22T12:06:53;21.50;99.90
10175;DHT22;18221;38.704;0.152;2024-03-22T12:09:24;21.50;99.90
10175;DHT22;18221;38.704;0.152;2024-03-22T12:11:51;21.60;99.90
10175;DHT22;18221;38.704;0.152;2024-03-22T12:14:22;21.60;99.90
10175;DHT22;18221;38.704;0.152;2024-03-22T12:16:49;21.70;99.90
10175;DHT22;18221;38.704;0.152;2024-03-22T12:19:17;21.80;99.90
10175;DHT22;18221;38.704;0.152;2024-03-22T12:21:44;21.90;99.90
10175;DHT22;18221;38.704;0.152;2024-03-22T12:24:14;21.80;99.90
10175;DHT22;18221;38.704;0.152;2024-03-22T12:26:41;21.90;99.90
10175;DHT22;18221;38.704;0.152;2024-03-22T12:29:09;22.00;99.90
10175;DHT22;18221;38.704;0.152;2024-03-22T12:31:38;22.00;99.90
10175;DHT22;18221;38.704;0.152;2024-03-22T12:34:06;22.10;99.90
10175;DHT22;18221;38.704;0.152;2024-03-22T12:36:38;22.30;99.90
10175;DHT22;18221;38.704;0.152;2024-03-22T12:39:06;22.50;99.90
10175;DHT22;18221;38.704;0.152;2024-03-22T12:41:35;22.80;99.90
10175;DHT22;18221;38.704;0.152;2024-03-22T12:44:03;23.10;99.90
10175;DHT22;18221;38.704;0.152;2024-03-22T12:46:30;23.00;99.90
10175;DHT22;18221;38.704;0.152;2024-03-22T12:48:58;22.80;99.90
10175;DHT22;18221;38.704;0.152;2024-03-22T12:51:25;22.80;99.90
10175;DHT22;18221;38.704;0.152;2024-03-22T12:53:56;22.80;99.90
10175;DHT22;18221;38.704;0.152;2024-03-22T12:56:23;22.60;99.90
10175;DHT22;18221;38.704;0.152;2024-03-22T12:58:52;22.50;99.90
10175;DHT22;18221;38.704;0.152;2024-03-22T13:01:19;22.40;99.90
10175;DHT22;18221;38.704;0.152;2024-03-22T13:03:47;22.40;99.90
10175;DHT22;18221;38.704;0.152;2024-03-22T13:06:14;22.60;99.90
10175;DHT22;18221;38.704;0.152;2024-03-22T13:08:42;22.90;99.90
10175;DHT22;18221;38.704;0.152;2024-03-22T13:11:09;22.90;99.90
10175;DHT22;18221;38.704;0.152;2024-03-22T13:13:37;22.90;99.90
10175;DHT22;18221;38.704;0.152;2024-03-22T13:16:06;22.90;99.90
10175;DHT22;18221;38.704;0.152;2024-03-22T13:18:36;22.60;99.90
10175;DHT22;18221;38.704;0.152;2024-03-22T13:21:04;22.60;99.90
10175;DHT22;18221;38.704;0.152;2024-03-22T13:23:32;22.70;99.90
10175;DHT22;18221;38.704;0.152;2024-03-22T13:26:03;22.60;99.20
10175;DHT22;18221;38.704;0.152;2024-03-22T13:28:32;22.50;99.90
10175;DHT22;18221;38.704;0.152;2024-03-22T13:31:00;22.80;99.90
10175;DHT22;18221;38.704;0.152;2024-03-22T13:33:33;22.60;99.90
10175;DHT22;18221;38.704;0.152;2024-03-22T13:36:00;22.50;99.90
10175;DHT22;18221;38.704;0.152;2024-03-22T13:38:30;22.60;99.90
10175;DHT22;18221;38.704;0.152;2024-03-22T13:40:57;22.60;99.50
10175;DHT22;18221;38.704;0.152;2024-03-22T13:43:26;22.60;99.30
10175;DHT22;18221;38.704;0.152;2024-03-22T13:45:54;22.50;99.00
10175;DHT22;18221;38.704;0.152;2024-03-22T13:48:25;22.60;99.70
10175;DHT22;18221;38.704;0.152;2024-03-22T13:50:54;22.70;99.90
10175;DHT22;18221;38.704;0.152;2024-03-22T13:53:22;22.80;98.40
10175;DHT22;18221;38.704;0.152;2024-03-22T13:55:49;22.90;99.90
10175;DHT22;18221;38.704;0.152;2024-03-22T13:58:19;23.10;98.30
10175;DHT22;18221;38.704;0.152;2024-03-22T14:00:45;23.00;99.90
10175;DHT22;18221;38.704;0.152;2024-03-22T14:03:13;23.30;99.70
10175;DHT22;18221;38.704;0.152;2024-03-22T14:05:40;23.40;99.90
10175;DHT22;18221;38.704;0.152;2024-03-22T14:08:10;23.30;98.60
10175;DHT22;18221;38.704;0.152;2024-03-22T14:10:37;23.20;98.40
10175;DHT22;18221;38.704;0.152;2024-03-22T14:13:05;23.10;97.90
10175;DHT22;18221;38.704;0.152;2024-03-22T14:15:33;22.90;99.90
10175;DHT22;18221;38.704;0.152;2024-03-22T14:18:02;23.00;98.00
10175;DHT22;18221;38.704;0.152;2024-03-22T14:20:29;23.30;99.90
10175;DHT22;18221;38.704;0.152;2024-03-22T14:22:57;23.40;99.60
10175;DHT22;18221;38.704;0.152;2024-03-22T14:25:25;23.30;98.90
10175;DHT22;18221;38.704;0.152;2024-03-22T14:27:53;23.30;98.40
10175;DHT22;18221;38.704;0.152;2024-03-22T14:30:21;23.20;98.70
10175;DHT22;18221;38.704;0.152;2024-03-22T14:32:51;23.20;97.80
10175;DHT22;18221;38.704;0.152;2024-03-22T14:35:18;23.30;97.10
10175;DHT22;18221;38.704;0.152;2024-03-22T14:37:48;23.00;97.80
10175;DHT22;18221;38.704;0.152;2024-03-22T14:40:15;23.00;98.20
10175;DHT22;18221;38.704;0.152;2024-03-22T14:42:45;22.90;96.70
10175;DHT22;18221;38.704;0.152;2024-03-22T14:45:12;22.80;99.90
10175;DHT22;18221;38.704;0.152;2024-03-22T14:47:47;22.80;99.30
10175;DHT22;18221;38.704;0.152;2024-03-22T14:50:14;22.80;98.30
10175;DHT22;18221;38.704;0.152;2024-03-22T14:52:42;22.60;97.60
10175;DHT22;18221;38.704;0.152;2024-03-22T14:55:09;22.50;99.90
10175;DHT22;18221;38.704;0.152;2024-03-22T14:57:36;22.50;98.70
10175;DHT22;18221;38.704;0.152;2024-03-22T15:00:06;22.40;98.90
10175;DHT22;18221;38.704;0.152;2024-03-22T15:02:36;22.30;99.40
10175;DHT22;18221;38.704;0.152;2024-03-22T15:05:03;22.30;97.80
10175;DHT22;18221;38.704;0.152;2024-03-22T15:07:32;22.20;99.20
10175;DHT22;18221;38.704;0.152;2024-03-22T15:09:59;22.20;98.50
10175;DHT22;18221;38.704;0.152;2024-03-22T15:12:26;22.20;97.50
10175;DHT22;18221;38.704;0.152;2024-03-22T15:14:53;22.30;98.80
10175;DHT22;18221;38.704;0.152;2024-03-22T15:17:23;22.20;99.90
10175;DHT22;18221;38.704;0.152;2024-03-22T15:19:49;22.20;99.90
10175;DHT22;18221;38.704;0.152;2024-03-22T15:22:17;22.20;99.90
10175;DHT22;18221;38.704;0.152;2024-03-22T15:24:46;22.20;99.90
10175;DHT22;18221;38.704;0.152;2024-03-22T15:27:14;22.10;99.90
10175;DHT22;18221;38.704;0.152;2024-03-22T15:29:42;22.10;99.90
10175;DHT22;18221;38.704;0.152;2024-03-22T15:32:09;22.00;99.90
10175;DHT22;18221;38.704;0.152;2024-03-22T15:34:39;22.10;99.90
10175;DHT22;18221;38.704;0.152;2024-03-22T15:37:06;22.00;99.90
10175;DHT22;18221;38.704;0.152;2024-03-22T15:39:33;22.10;99.90
10175;DHT22;18221;38.704;0.152;2024-03-22T15:42:00;22.00;99.90
10175;DHT22;18221;38.704;0.152;2024-03-22T15:44:28;21.90;99.90
10175;DHT22;18221;38.704;0.152;2024-03-22T15:46:55;21.90;99.90